createdAt,value
2023-04-30T00:04:20.240Z,10.63
2023-04-30T00:10:22.992Z,11.15
2023-04-30T00:16:25.405Z,10.55
2023-04-30T00:22:27.843Z,8.95
2023-04-30T00:28:30.420Z,9.55
2023-04-30T00:34:33.208Z,9.70
2023-04-30T00:46:38.470Z,9.52
2023-04-30T00:52:40.881Z,8.98
2023-04-30T00:58:43.379Z,10.00
2023-04-30T01:04:46.575Z,9.13
2023-04-30T01:10:56.976Z,9.68
2023-04-30T01:17:31.597Z,9.65
2023-04-30T01:24:01.027Z,10.30
2023-04-30T01:30:05.481Z,9.00
2023-04-30T01:36:23.713Z,11.07
2023-04-30T01:42:47.440Z,9.90
2023-04-30T01:55:08.750Z,10.02
2023-04-30T02:01:27.172Z,9.95
2023-04-30T02:07:42.243Z,9.98
2023-04-30T02:13:44.704Z,11.07
2023-04-30T02:19:47.008Z,9.80
2023-04-30T02:25:49.213Z,8.18
2023-04-30T02:31:51.641Z,10.75
2023-04-30T02:37:54.259Z,11.95
2023-04-30T02:43:56.766Z,11.48
2023-04-30T02:49:59.246Z,15.93
2023-04-30T02:56:01.849Z,13.38
2023-04-30T03:02:04.382Z,14.05
2023-04-30T03:08:06.840Z,13.20
2023-04-30T03:14:09.317Z,14.23
2023-04-30T03:20:12.182Z,13.27
2023-04-30T03:26:14.572Z,14.20
2023-04-30T03:32:17.013Z,15.73
2023-04-30T03:38:19.604Z,16.95
2023-04-30T03:44:22.035Z,16.67
2023-04-30T03:50:24.568Z,16.35
2023-04-30T03:56:27.287Z,16.15
2023-04-30T04:08:34.621Z,17.63
2023-04-30T04:14:37.238Z,16.58
2023-04-30T04:20:39.476Z,17.48
2023-04-30T04:26:42.065Z,15.53
2023-04-30T04:32:48.928Z,16.90
2023-04-30T04:38:51.306Z,19.50
2023-04-30T04:44:53.704Z,19.25
2023-04-30T04:50:56.116Z,19.67
2023-04-30T04:56:58.680Z,17.98
2023-04-30T05:03:01.207Z,18.80
2023-04-30T05:15:08.904Z,16.98
2023-04-30T05:21:11.382Z,16.23
2023-04-30T05:27:13.845Z,16.15
2023-04-30T05:33:16.705Z,14.57
2023-04-30T05:39:19.079Z,13.80
2023-04-30T05:45:21.578Z,14.40
2023-04-30T05:51:24.057Z,14.18
2023-04-30T05:57:26.278Z,13.50
2023-04-30T06:03:28.738Z,12.52
2023-04-30T06:09:31.133Z,8.82
2023-04-30T06:15:33.705Z,8.88
2023-04-30T06:21:36.519Z,7.45
2023-04-30T06:27:38.975Z,7.18
2023-04-30T06:33:41.387Z,5.90
2023-04-30T06:39:44.238Z,7.13
2023-04-30T06:45:46.923Z,5.18
2023-04-30T06:51:49.327Z,5.22
2023-04-30T06:57:51.729Z,4.00
2023-04-30T07:03:55.564Z,4.10
2023-04-30T07:09:58.282Z,4.03
2023-04-30T07:16:01.357Z,4.10
2023-04-30T07:22:03.808Z,4.13
2023-04-30T07:28:06.116Z,5.05
2023-04-30T07:34:09.189Z,4.32
2023-04-30T07:40:19.313Z,4.20
2023-04-30T07:46:27.856Z,4.18
2023-04-30T07:52:30.294Z,4.25
2023-04-30T07:58:32.642Z,4.45
2023-04-30T08:04:35.417Z,4.38
2023-04-30T08:10:38.251Z,4.32
2023-04-30T08:16:40.888Z,5.55
2023-04-30T08:22:43.840Z,4.90
2023-04-30T08:28:46.125Z,6.53
2023-04-30T08:34:48.867Z,6.85
2023-04-30T08:41:05.293Z,7.63
2023-04-30T08:47:09.192Z,7.88
2023-04-30T08:53:13.628Z,7.22
2023-04-30T08:59:16.594Z,7.35
2023-04-30T09:05:19.395Z,8.05
2023-04-30T09:11:24.466Z,8.43
2023-04-30T09:17:27.447Z,7.93
2023-04-30T09:23:30.615Z,5.75
2023-04-30T09:29:39.043Z,6.28
2023-04-30T09:35:44.540Z,5.20
2023-04-30T09:41:46.951Z,4.93
2023-04-30T09:47:49.505Z,4.32
2023-04-30T09:53:52.241Z,3.55
2023-04-30T09:59:55.357Z,4.70
2023-04-30T10:05:58.408Z,4.03
2023-04-30T10:12:02.571Z,4.72
2023-04-30T10:18:08.036Z,4.60
2023-04-30T10:24:11.976Z,4.05
2023-04-30T10:30:15.862Z,4.65
2023-04-30T10:36:36.384Z,5.22
2023-04-30T10:42:46.241Z,4.40
2023-04-30T10:48:49.222Z,4.78
2023-04-30T10:54:52.138Z,4.30
2023-04-30T11:01:04.841Z,3.78
2023-04-30T11:07:10.733Z,4.40
2023-04-30T11:13:14.562Z,9.05
2023-04-30T11:19:17.250Z,4.40
2023-04-30T11:25:20.556Z,4.57
2023-04-30T11:31:23.500Z,7.57
2023-04-30T11:37:33.023Z,8.98
2023-04-30T11:43:35.502Z,4.13
2023-04-30T11:49:37.975Z,4.05
2023-04-30T11:55:42.046Z,4.55
2023-04-30T12:01:44.702Z,3.50
2023-04-30T12:07:57.812Z,3.30
2023-04-30T12:14:05.790Z,3.55
2023-04-30T12:20:12.778Z,5.00
2023-04-30T12:26:15.360Z,4.10
2023-04-30T12:32:24.085Z,3.60
2023-04-30T12:38:26.412Z,3.30
2023-04-30T12:44:29.649Z,3.78
2023-04-30T12:50:31.838Z,3.83
2023-04-30T12:56:34.428Z,3.10
2023-04-30T13:02:37.130Z,5.03
2023-04-30T13:08:50.387Z,3.90
2023-04-30T13:15:00.149Z,3.35
2023-04-30T13:21:02.896Z,3.35
2023-04-30T13:27:05.612Z,2.92
2023-04-30T13:33:08.233Z,3.35
2023-04-30T13:39:10.730Z,3.05
2023-04-30T13:45:13.299Z,3.47
2023-04-30T13:51:15.969Z,3.60
2023-04-30T13:57:18.360Z,3.72
2023-04-30T14:03:21.117Z,3.42
2023-04-30T14:09:24.290Z,3.70
2023-04-30T14:15:26.681Z,2.78
2023-04-30T14:21:28.987Z,3.05
2023-04-30T14:27:32.177Z,3.53
2023-04-30T14:33:34.644Z,3.13
2023-04-30T14:39:36.829Z,3.47
2023-04-30T14:51:46.285Z,3.58
2023-04-30T14:57:48.637Z,3.83
2023-04-30T15:03:51.450Z,3.60
2023-04-30T15:09:53.924Z,3.90
2023-04-30T15:15:56.635Z,4.90
2023-04-30T15:21:59.051Z,5.63
2023-04-30T15:28:01.349Z,4.30
2023-04-30T15:40:07.194Z,3.97
2023-04-30T15:46:09.634Z,2.67
2023-04-30T15:58:14.147Z,3.13
2023-04-30T16:04:16.553Z,3.20
2023-04-30T16:16:23.056Z,3.17
2023-04-30T16:28:28.781Z,3.67
2023-04-30T16:34:31.085Z,3.38
2023-04-30T16:40:34.413Z,3.78
2023-04-30T16:46:36.797Z,2.30
2023-04-30T16:58:41.320Z,3.92
2023-04-30T17:04:43.521Z,2.85
2023-04-30T17:10:46.401Z,3.10
2023-04-30T17:16:49.057Z,2.70
2023-04-30T17:22:51.637Z,2.97
2023-04-30T17:34:55.883Z,6.07
2023-04-30T17:40:58.267Z,5.90
2023-04-30T17:47:00.872Z,5.15
2023-04-30T17:53:03.790Z,4.97
2023-04-30T17:59:06.755Z,4.78
2023-04-30T18:05:10.552Z,4.25
2023-04-30T18:11:13.370Z,6.88
2023-04-30T18:17:16.803Z,4.82
2023-04-30T18:23:19.794Z,4.18
2023-04-30T18:29:24.577Z,4.43
2023-04-30T18:35:28.910Z,4.65
2023-04-30T18:41:31.267Z,4.32
2023-04-30T18:47:33.991Z,4.35
2023-04-30T18:59:40.013Z,3.93
2023-04-30T19:05:43.217Z,3.55
2023-04-30T19:11:45.616Z,2.95
2023-04-30T19:17:48.304Z,6.65
2023-04-30T19:23:50.975Z,2.50
2023-04-30T19:29:54.231Z,3.50
2023-04-30T19:35:57.952Z,3.13
2023-04-30T19:42:00.524Z,2.90
2023-04-30T19:48:02.664Z,3.05
2023-04-30T19:54:05.452Z,2.70
2023-04-30T20:06:12.814Z,2.75
2023-04-30T20:12:18.422Z,2.75
2023-04-30T20:18:24.282Z,2.30
2023-04-30T20:24:26.772Z,3.67
2023-04-30T20:30:29.237Z,3.63
2023-04-30T20:36:32.105Z,3.45
2023-04-30T20:42:34.546Z,3.58
2023-04-30T20:48:36.859Z,3.70
2023-04-30T20:54:39.650Z,3.17
2023-04-30T21:00:42.050Z,4.55
2023-04-30T21:06:44.475Z,4.70
2023-04-30T21:12:47.067Z,3.17
2023-04-30T21:24:54.143Z,3.28
2023-04-30T21:30:57.007Z,3.55
2023-04-30T21:37:00.229Z,3.30
2023-04-30T21:43:02.572Z,3.38
2023-04-30T21:49:05.613Z,3.55
2023-04-30T21:55:08.652Z,4.03
2023-04-30T22:01:11.167Z,4.60
2023-04-30T22:07:13.253Z,5.28
2023-04-30T22:13:15.638Z,5.20
2023-04-30T22:25:21.548Z,4.68
2023-04-30T22:37:26.800Z,4.03
2023-04-30T22:43:30.861Z,4.95
2023-04-30T22:49:33.978Z,4.03
2023-04-30T22:55:36.509Z,5.18
2023-04-30T23:01:39.503Z,5.60
2023-04-30T23:07:41.798Z,4.53
2023-04-30T23:13:43.990Z,5.25
2023-04-30T23:19:46.505Z,4.38
2023-04-30T23:25:48.882Z,3.92
2023-04-30T23:31:54.298Z,3.85
2023-04-30T23:37:56.564Z,4.88
2023-04-30T23:43:58.967Z,3.85
2023-04-30T23:50:01.196Z,3.67
2023-04-30T23:56:03.772Z,4.22
